Jiuquan, China
Current Conditions -  °F | °C
As of 5:00 AM on Sunday 23 Nov 2014 (Local Time) from ZLLL Reporting Station
Clear Clear  
Wind Chill: 17°   Ceiling: Unl
Heat Index: 23°   Visibility: 6mi
Dew Point: 19°   Wind: 4mph
Humidity: 86%   Direction: 310°NW
Pressure: 30.18"   Gusts: NA
Location:  39.75°N, 98.51°E
Report Text: ZLLL 222100Z 31002MPS CAVOK M05/M07 Q1022 NOSIG
Loading
Personal Weather Stations






























Interactive Weather Map New forecast layout! Learn more

10-Day Weather Forecast

Advertisements
Track Severe Weather on mobile